Time;durP1;ratioP1;P1;durP2;ratioP2;P2;SDS_P1;SDS_P2;PMS_P1;PMS_P2;Temp;Humidity;BMP_temperature;BMP_pressure;BME280_temperature;BME280_humidity;BME280_pressure;Samples;Min_cycle;Max_cycle;Signal;HPM_P1;HPM_P2
2024/04/18 00:01:51;;;;;;;10.93;4.47;;;;;;;;;;5346029;26;20011;-65
2024/04/18 00:04:16;;;;;;;13.65;4.10;;;;;;;;;;5345300;26;20008;-66
2024/04/18 00:06:42;;;;;;;11.63;4.40;;;;;;;;;;5346008;26;20070;-67
2024/04/18 00:09:07;;;;;;;13.35;4.65;;;;;;;;;;5346755;26;20015;-66
2024/04/18 00:11:33;;;;;;;8.70;4.05;;;;;;;;;;5345922;26;20000;-67
2024/04/18 00:13:58;;;;;;;15.90;4.68;;;;;;;;;;5345675;26;20001;-66
2024/04/18 00:16:23;;;;;;;14.85;4.72;;;;;;;;;;5345830;26;20007;-65
2024/04/18 00:18:49;;;;;;;10.18;4.82;;;;;;;;;;5348890;26;20005;-65
2024/04/18 00:21:14;;;;;;;12.32;5.05;;;;;;;;;;5343693;26;20033;-67
2024/04/18 00:23:39;;;;;;;16.48;4.25;;;;;;;;;;5345409;26;20468;-66
2024/04/18 00:26:05;;;;;;;10.55;4.43;;;;;;;;;;5345095;26;20241;-66
2024/04/18 00:28:30;;;;;;;12.32;5.40;;;;;;;;;;5365954;26;20047;-67
2024/04/18 00:30:56;;;;;;;8.30;5.35;;;;;;;;;;5379520;26;20011;-66
2024/04/18 00:33:21;;;;;;;11.65;4.22;;;;;;;;;;5370305;26;20276;-66
2024/04/18 00:35:47;;;;;;;8.98;4.07;;;;;;;;;;5354277;26;20403;-64
2024/04/18 00:38:15;;;;;;;10.40;4.90;;;;;;;;;;5373985;26;20329;-66
2024/04/18 00:40:43;;;;;;;11.52;4.40;;;;;;;;;;5345252;26;20005;-66
2024/04/18 00:43:09;;;;;;;15.10;5.00;;;;;;;;;;5344643;26;20034;-65
2024/04/18 00:45:34;;;;;;;16.83;5.28;;;;;;;;;;5344641;26;20001;-67
2024/04/18 00:48:00;;;;;;;13.25;4.50;;;;;;;;;;5350010;26;20374;-65
2024/04/18 00:50:25;;;;;;;12.02;4.78;;;;;;;;;;5379364;26;20007;-67
2024/04/18 00:52:51;;;;;;;8.55;4.63;;;;;;;;;;5353933;26;20009;-67
2024/04/18 00:55:16;;;;;;;13.05;4.55;;;;;;;;;;5343457;26;20013;-64
2024/04/18 00:57:43;;;;;;;11.18;4.72;;;;;;;;;;5342962;26;20016;-66
2024/04/18 01:00:10;;;;;;;8.48;4.03;;;;;;;;;;5345186;26;20005;-65
2024/04/18 01:02:36;;;;;;;9.57;4.50;;;;;;;;;;5349140;26;20016;-66
2024/04/18 01:05:02;;;;;;;13.15;5.15;;;;;;;;;;5378780;26;20011;-66
2024/04/18 01:07:29;;;;;;;13.98;4.85;;;;;;;;;;5379407;26;20365;-66
2024/04/18 01:09:54;;;;;;;13.52;4.55;;;;;;;;;;5380132;26;20004;-65
2024/04/18 01:12:20;;;;;;;11.02;4.80;;;;;;;;;;5376472;26;20275;-66
2024/04/18 01:14:45;;;;;;;8.93;4.20;;;;;;;;;;5376449;26;20009;-65
2024/04/18 01:17:11;;;;;;;8.30;5.05;;;;;;;;;;5376447;26;20019;-65
2024/04/18 01:19:36;;;;;;;11.65;4.95;;;;;;;;;;5344206;26;20001;-65
2024/04/18 01:22:02;;;;;;;11.60;5.30;;;;;;;;;;5343961;26;20416;-64
2024/04/18 01:24:28;;;;;;;11.98;5.43;;;;;;;;;;5344777;26;20071;-66
2024/04/18 01:26:53;;;;;;;13.18;5.88;;;;;;;;;;5345205;26;20002;-65
2024/04/18 01:29:19;;;;;;;12.30;5.28;;;;;;;;;;5345507;26;20029;-66
2024/04/18 01:31:44;;;;;;;10.85;5.40;;;;;;;;;;5349680;26;20012;-66
2024/04/18 01:34:09;;;;;;;17.10;6.63;;;;;;;;;;5381559;26;20004;-66
2024/04/18 01:36:35;;;;;;;14.07;6.25;;;;;;;;;;5383199;26;20050;-67
2024/04/18 01:39:00;;;;;;;13.85;6.07;;;;;;;;;;5355540;26;20408;-66
2024/04/18 01:41:26;;;;;;;19.90;6.95;;;;;;;;;;5347342;26;19996;-66
2024/04/18 01:43:51;;;;;;;17.77;6.75;;;;;;;;;;5348620;26;19997;-62
2024/04/18 01:46:16;;;;;;;17.95;7.03;;;;;;;;;;5350879;26;20339;-65
2024/04/18 01:48:43;;;;;;;18.73;7.43;;;;;;;;;;5377177;26;20012;-66
2024/04/18 01:51:08;;;;;;;20.33;6.32;;;;;;;;;;5380347;26;20070;-64
2024/04/18 01:53:36;;;;;;;15.57;6.57;;;;;;;;;;5352846;26;20016;-66
2024/04/18 01:56:01;;;;;;;13.30;6.63;;;;;;;;;;5348568;26;20001;-66
2024/04/18 01:58:27;;;;;;;16.63;6.97;;;;;;;;;;5346504;26;20412;-67
2024/04/18 02:00:52;;;;;;;20.35;7.18;;;;;;;;;;5379385;26;20310;-65
2024/04/18 02:03:18;;;;;;;16.40;7.30;;;;;;;;;;5376103;26;20299;-66
2024/04/18 02:05:44;;;;;;;20.55;8.02;;;;;;;;;;5383068;26;20004;-66
2024/04/18 02:08:09;;;;;;;16.33;7.45;;;;;;;;;;5382178;26;20074;-67
2024/04/18 02:10:34;;;;;;;22.85;7.85;;;;;;;;;;5381879;26;20007;-67
2024/04/18 02:13:00;;;;;;;19.40;7.28;;;;;;;;;;5356868;26;20005;-66
2024/04/18 02:15:26;;;;;;;15.05;7.75;;;;;;;;;;5346651;26;20315;-65
2024/04/18 02:17:52;;;;;;;18.13;7.40;;;;;;;;;;5354483;26;20013;-63
2024/04/18 02:20:20;;;;;;;19.15;7.10;;;;;;;;;;5346955;26;20011;-65
2024/04/18 02:22:45;;;;;;;18.20;7.97;;;;;;;;;;5349757;26;20004;-64
2024/04/18 02:25:11;;;;;;;25.65;7.72;;;;;;;;;;5382375;26;20000;-66
2024/04/18 02:27:37;;;;;;;18.50;7.50;;;;;;;;;;5377818;26;20073;-67
2024/04/18 02:30:04;;;;;;;20.40;8.10;;;;;;;;;;5356116;26;20025;-65
2024/04/18 02:32:31;;;;;;;16.05;7.85;;;;;;;;;;5352174;26;20008;-66
2024/04/18 02:34:56;;;;;;;20.80;8.00;;;;;;;;;;5346253;26;20020;-66
2024/04/18 02:37:22;;;;;;;24.10;7.68;;;;;;;;;;5347300;26;20020;-65
2024/04/18 02:39:47;;;;;;;13.45;7.78;;;;;;;;;;5345989;26;20268;-66
2024/04/18 02:42:13;;;;;;;24.75;7.75;;;;;;;;;;5345713;26;20841;-66
2024/04/18 02:44:38;;;;;;;23.30;7.97;;;;;;;;;;5345892;26;20009;-64
2024/04/18 02:47:03;;;;;;;17.75;9.15;;;;;;;;;;5369230;26;20012;-65
2024/04/18 02:49:29;;;;;;;20.02;7.97;;;;;;;;;;5382141;26;20019;-66
2024/04/18 02:51:56;;;;;;;16.65;7.63;;;;;;;;;;5358939;26;20005;-64
2024/04/18 02:54:21;;;;;;;14.75;8.23;;;;;;;;;;5346617;26;20075;-66
2024/04/18 02:56:47;;;;;;;20.17;9.13;;;;;;;;;;5346594;26;20005;-65
2024/04/18 02:59:15;;;;;;;12.18;7.50;;;;;;;;;;5359333;26;20075;-66
2024/04/18 03:01:40;;;;;;;19.55;8.70;;;;;;;;;;5380627;26;20000;-66
2024/04/18 03:04:06;;;;;;;19.67;8.98;;;;;;;;;;5382136;26;20007;-65
2024/04/18 03:06:31;;;;;;;17.90;8.68;;;;;;;;;;5381003;26;19996;-66
2024/04/18 03:08:56;;;;;;;19.60;8.27;;;;;;;;;;5380032;26;20000;-67
2024/04/18 03:11:22;;;;;;;21.75;9.15;;;;;;;;;;5354097;26;20005;-66
2024/04/18 03:13:47;;;;;;;18.05;9.27;;;;;;;;;;5348658;26;20011;-66
2024/04/18 03:16:13;;;;;;;18.70;9.27;;;;;;;;;;5379852;26;20019;-66
2024/04/18 03:18:39;;;;;;;19.35;9.05;;;;;;;;;;5369147;26;20001;-64
2024/04/18 03:21:04;;;;;;;14.88;9.38;;;;;;;;;;5347274;26;19997;-65
2024/04/18 03:23:29;;;;;;;19.48;9.63;;;;;;;;;;5346148;26;20016;-65
2024/04/18 03:25:56;;;;;;;15.02;8.25;;;;;;;;;;5345990;26;20001;-64
2024/04/18 03:28:21;;;;;;;19.30;9.80;;;;;;;;;;5348485;26;20321;-67
2024/04/18 03:30:47;;;;;;;17.92;9.10;;;;;;;;;;5366088;26;20005;-64
2024/04/18 03:33:13;;;;;;;19.30;9.55;;;;;;;;;;5365360;26;20040;-67
2024/04/18 03:35:38;;;;;;;16.45;9.38;;;;;;;;;;5374915;26;20004;-67
2024/04/18 03:38:04;;;;;;;23.33;9.50;;;;;;;;;;5372647;26;20014;-65
2024/04/18 03:40:29;;;;;;;15.68;9.13;;;;;;;;;;5345536;26;19997;-66
2024/04/18 03:42:54;;;;;;;18.73;9.65;;;;;;;;;;5348637;26;20407;-65
2024/04/18 03:45:20;;;;;;;20.55;10.13;;;;;;;;;;5366200;26;20024;-67
2024/04/18 03:47:45;;;;;;;17.23;9.90;;;;;;;;;;5346402;26;20295;-65
2024/04/18 03:50:11;;;;;;;16.88;9.30;;;;;;;;;;5346523;26;20308;-65
2024/04/18 03:52:37;;;;;;;22.30;10.40;;;;;;;;;;5345856;26;20013;-65
2024/04/18 03:55:02;;;;;;;17.67;10.20;;;;;;;;;;5361456;26;20000;-66
2024/04/18 03:57:29;;;;;;;23.20;10.48;;;;;;;;;;5377870;26;20012;-64
2024/04/18 03:59:54;;;;;;;25.58;10.35;;;;;;;;;;5345885;26;20324;-66
2024/04/18 04:02:20;;;;;;;22.63;10.60;;;;;;;;;;5345084;26;20016;-66
2024/04/18 04:04:49;;;;;;;18.45;10.57;;;;;;;;;;5345432;26;20408;-65
2024/04/18 04:07:14;;;;;;;22.25;10.95;;;;;;;;;;5345359;26;20013;-65
2024/04/18 04:09:40;;;;;;;19.20;10.45;;;;;;;;;;5345970;26;20356;-67
2024/04/18 04:12:06;;;;;;;18.70;10.52;;;;;;;;;;5347552;26;20016;-66
2024/04/18 04:14:31;;;;;;;18.08;10.32;;;;;;;;;;5376258;26;20086;-65
2024/04/18 04:16:56;;;;;;;16.95;10.95;;;;;;;;;;5378302;26;20000;-66
2024/04/18 04:19:22;;;;;;;19.92;11.07;;;;;;;;;;5381068;26;20094;-66
2024/04/18 04:21:48;;;;;;;20.52;10.05;;;;;;;;;;5374434;26;20794;-67
2024/04/18 04:24:14;;;;;;;16.38;10.40;;;;;;;;;;5343803;26;20025;-65
2024/04/18 04:26:39;;;;;;;20.70;10.95;;;;;;;;;;5345344;26;20001;-67
2024/04/18 04:29:04;;;;;;;16.67;11.40;;;;;;;;;;5373183;26;20015;-64
2024/04/18 04:31:30;;;;;;;20.65;11.25;;;;;;;;;;5379631;26;19996;-64
2024/04/18 04:33:55;;;;;;;24.13;12.65;;;;;;;;;;5351073;26;20326;-66
2024/04/18 04:36:21;;;;;;;21.63;11.73;;;;;;;;;;5344158;26;20280;-65
2024/04/18 04:38:47;;;;;;;20.02;12.25;;;;;;;;;;5342743;26;20009;-64
2024/04/18 04:41:12;;;;;;;17.52;11.60;;;;;;;;;;5343787;26;20005;-65
2024/04/18 04:43:38;;;;;;;20.02;11.85;;;;;;;;;;5372839;26;20004;-67
2024/04/18 04:46:05;;;;;;;16.63;11.25;;;;;;;;;;5377108;26;20004;-65
2024/04/18 04:48:31;;;;;;;16.65;11.23;;;;;;;;;;5378864;26;20074;-62
2024/04/18 04:51:00;;;;;;;16.08;12.27;;;;;;;;;;5379495;26;20012;-66
2024/04/18 04:53:25;;;;;;;18.35;12.10;;;;;;;;;;5352880;26;20016;-65
2024/04/18 04:55:51;;;;;;;17.80;12.43;;;;;;;;;;5343932;26;20292;-65
2024/04/18 04:58:16;;;;;;;14.95;11.05;;;;;;;;;;5344905;26;19997;-65
2024/04/18 05:00:42;;;;;;;21.25;11.35;;;;;;;;;;5347051;26;20001;-66
2024/04/18 05:03:07;;;;;;;18.70;11.80;;;;;;;;;;5377780;26;20070;-66
2024/04/18 05:05:33;;;;;;;20.40;12.13;;;;;;;;;;5382381;26;20000;-66
2024/04/18 05:07:58;;;;;;;25.20;12.52;;;;;;;;;;5384070;26;20000;-66
2024/04/18 05:10:24;;;;;;;18.80;11.40;;;;;;;;;;5369551;26;20019;-66
2024/04/18 05:12:52;;;;;;;19.33;12.02;;;;;;;;;;5347233;26;20366;-65
2024/04/18 05:15:18;;;;;;;21.63;11.75;;;;;;;;;;5350250;26;20012;-65
2024/04/18 05:17:43;;;;;;;16.67;12.07;;;;;;;;;;5379591;26;20300;-65
2024/04/18 05:20:09;;;;;;;19.77;11.65;;;;;;;;;;5379475;26;20011;-66
2024/04/18 05:22:34;;;;;;;19.05;11.77;;;;;;;;;;5352606;26;20012;-64
2024/04/18 05:25:00;;;;;;;21.08;11.73;;;;;;;;;;5348591;26;20001;-66
2024/04/18 05:27:25;;;;;;;21.58;12.30;;;;;;;;;;5347726;26;20068;-67
2024/04/18 05:32:34;;;;;;;22.05;11.70;;;;;;;;;;5380499;26;20004;-66
2024/04/18 05:35:00;;;;;;;18.38;11.48;;;;;;;;;;5363043;26;20422;-65
2024/04/18 05:37:25;;;;;;;23.40;11.48;;;;;;;;;;5348163;26;20001;-66
2024/04/18 05:39:51;;;;;;;17.75;11.75;;;;;;;;;;5347458;26;20384;-67
2024/04/18 05:42:16;;;;;;;14.85;10.60;;;;;;;;;;5347286;26;20016;-65
2024/04/18 05:44:42;;;;;;;16.05;10.88;;;;;;;;;;5351005;26;20008;-68
2024/04/18 05:47:08;;;;;;;20.98;11.65;;;;;;;;;;5355435;26;20301;-65
2024/04/18 05:49:34;;;;;;;14.80;10.07;;;;;;;;;;5345302;26;20001;-64
2024/04/18 05:51:59;;;;;;;20.73;10.52;;;;;;;;;;5347256;26;20067;-68
2024/04/18 05:54:25;;;;;;;16.05;10.00;;;;;;;;;;5348037;26;20005;-63
2024/04/18 05:56:50;;;;;;;18.25;10.35;;;;;;;;;;5347789;26;20312;-62
2024/04/18 05:59:15;;;;;;;15.77;10.77;;;;;;;;;;5351790;26;20404;-63
2024/04/18 06:01:41;;;;;;;18.83;10.85;;;;;;;;;;5346799;26;20053;-63
2024/04/18 06:04:07;;;;;;;14.25;10.10;;;;;;;;;;5347489;26;20474;-62
2024/04/18 06:06:33;;;;;;;17.52;9.95;;;;;;;;;;5350450;26;20024;-62
2024/04/18 06:08:59;;;;;;;19.77;10.40;;;;;;;;;;5346765;26;20011;-63
2024/04/18 06:11:35;;;;;;;15.63;9.60;;;;;;;;;;5347221;26;20427;-63
2024/04/18 06:14:01;;;;;;;13.25;9.63;;;;;;;;;;5348626;26;20020;-64
2024/04/18 06:16:27;;;;;;;10.60;8.48;;;;;;;;;;5357981;26;20017;-63
2024/04/18 06:18:54;;;;;;;17.30;8.65;;;;;;;;;;5347441;26;20259;-62
2024/04/18 06:21:19;;;;;;;18.60;8.80;;;;;;;;;;5347313;26;20005;-63
2024/04/18 06:23:44;;;;;;;15.18;8.57;;;;;;;;;;5379927;26;20283;-63
2024/04/18 06:26:10;;;;;;;13.48;7.75;;;;;;;;;;5358690;26;20036;-64
2024/04/18 06:28:35;;;;;;;13.25;7.03;;;;;;;;;;5382818;26;20107;-63
2024/04/18 06:31:01;;;;;;;12.43;6.78;;;;;;;;;;5382453;26;20074;-65
2024/04/18 06:33:29;;;;;;;15.65;8.05;;;;;;;;;;5382745;26;20011;-63
2024/04/18 06:35:55;;;;;;;12.48;7.68;;;;;;;;;;5371172;26;20009;-65
2024/04/18 06:38:20;;;;;;;10.20;7.25;;;;;;;;;;5347049;26;20283;-62
2024/04/18 06:40:45;;;;;;;17.45;7.82;;;;;;;;;;5347580;26;20400;-62
2024/04/18 06:43:11;;;;;;;14.05;7.68;;;;;;;;;;5345584;26;20005;-64
2024/04/18 06:45:38;;;;;;;11.60;7.65;;;;;;;;;;5345789;26;20013;-62
2024/04/18 06:48:04;;;;;;;15.57;7.72;;;;;;;;;;5349684;26;20001;-64
2024/04/18 06:50:29;;;;;;;16.52;7.97;;;;;;;;;;5375430;26;20387;-63
2024/04/18 06:52:55;;;;;;;18.15;9.00;;;;;;;;;;5381597;26;20067;-63
2024/04/18 06:55:21;;;;;;;16.90;8.05;;;;;;;;;;5382546;26;20012;-63
2024/04/18 06:57:47;;;;;;;17.70;8.48;;;;;;;;;;5381337;26;20015;-62
2024/04/18 07:00:14;;;;;;;18.55;7.63;;;;;;;;;;5381869;26;20008;-63
2024/04/18 07:02:40;;;;;;;13.95;7.40;;;;;;;;;;5380685;26;20422;-62
2024/04/18 07:05:06;;;;;;;13.40;7.10;;;;;;;;;;5381913;26;20290;-62
2024/04/18 07:07:31;;;;;;;10.23;6.55;;;;;;;;;;5381565;26;20074;-64
2024/04/18 07:09:57;;;;;;;12.80;6.35;;;;;;;;;;5382289;26;20004;-62
2024/04/18 07:12:22;;;;;;;7.78;6.05;;;;;;;;;;5377456;26;20300;-65
2024/04/18 07:14:47;;;;;;;14.10;6.93;;;;;;;;;;5379538;26;20016;-64
2024/04/18 07:17:13;;;;;;;10.65;6.20;;;;;;;;;;5382172;26;20005;-64
2024/04/18 07:19:38;;;;;;;8.85;6.05;;;;;;;;;;5381082;26;20010;-65
2024/04/18 07:22:04;;;;;;;9.68;5.75;;;;;;;;;;5382773;26;20012;-63
2024/04/18 07:24:30;;;;;;;13.38;7.72;;;;;;;;;;5381119;26;20015;-62
2024/04/18 07:26:55;;;;;;;20.00;7.53;;;;;;;;;;5380818;26;20362;-62
2024/04/18 07:29:21;;;;;;;16.20;7.20;;;;;;;;;;5377268;26;20004;-62
2024/04/18 07:31:46;;;;;;;13.43;8.02;;;;;;;;;;5382019;26;20127;-62
2024/04/18 07:34:13;;;;;;;14.35;7.20;;;;;;;;;;5381074;26;20008;-62
2024/04/18 07:36:38;;;;;;;17.20;7.55;;;;;;;;;;5380930;26;20000;-64
2024/04/18 07:39:04;;;;;;;13.25;6.72;;;;;;;;;;5378487;26;20008;-62
2024/04/18 07:41:29;;;;;;;11.43;6.55;;;;;;;;;;5381441;26;21000;-62
2024/04/18 07:43:55;;;;;;;11.40;6.50;;;;;;;;;;5381017;26;20067;-63
2024/04/18 07:46:21;;;;;;;13.55;6.80;;;;;;;;;;5380780;26;20022;-63
2024/04/18 07:48:47;;;;;;;10.95;5.53;;;;;;;;;;5381442;26;20070;-63
2024/04/18 07:51:13;;;;;;;8.18;5.80;;;;;;;;;;5363069;26;20028;-66
2024/04/18 07:53:38;;;;;;;7.88;5.20;;;;;;;;;;5362409;26;20012;-66
2024/04/18 07:56:07;;;;;;;9.85;4.85;;;;;;;;;;5350538;26;20418;-66
2024/04/18 07:58:32;;;;;;;7.07;4.53;;;;;;;;;;5364745;26;20416;-66
2024/04/18 08:00:58;;;;;;;9.20;5.25;;;;;;;;;;5379390;26;20015;-65
2024/04/18 08:03:23;;;;;;;7.22;5.07;;;;;;;;;;5380063;26;20012;-66
2024/04/18 08:05:49;;;;;;;7.57;4.93;;;;;;;;;;5370373;26;20009;-65
2024/04/18 08:08:15;;;;;;;7.68;4.68;;;;;;;;;;5380597;26;20019;-66
2024/04/18 08:10:40;;;;;;;6.55;4.47;;;;;;;;;;5381587;26;20007;-65
2024/04/18 08:13:06;;;;;;;10.20;4.55;;;;;;;;;;5363600;26;20288;-64
2024/04/18 08:15:31;;;;;;;9.68;4.93;;;;;;;;;;5344873;26;20499;-66
2024/04/18 08:17:57;;;;;;;10.13;5.80;;;;;;;;;;5344605;26;20078;-65
2024/04/18 08:20:22;;;;;;;8.90;5.25;;;;;;;;;;5344575;26;20076;-64
2024/04/18 08:22:50;;;;;;;15.02;6.05;;;;;;;;;;5373551;26;20682;-65
2024/04/18 08:25:16;;;;;;;7.03;5.60;;;;;;;;;;5376021;26;20399;-64
2024/04/18 08:27:42;;;;;;;7.53;5.43;;;;;;;;;;5374477;26;20015;-65
2024/04/18 08:30:08;;;;;;;9.45;5.75;;;;;;;;;;5373872;26;20004;-65
2024/04/18 08:32:33;;;;;;;8.63;5.25;;;;;;;;;;5344898;26;20067;-66
2024/04/18 08:34:59;;;;;;;11.52;5.57;;;;;;;;;;5345914;26;20008;-64
2024/04/18 08:37:24;;;;;;;7.70;5.32;;;;;;;;;;5365445;26;20015;-65
2024/04/18 08:39:49;;;;;;;9.48;5.60;;;;;;;;;;5381847;26;20403;-65
2024/04/18 08:42:26;;;;;;;11.00;5.32;;;;;;;;;;5380665;26;20004;-65
2024/04/18 08:44:55;;;;;;;8.75;5.43;;;;;;;;;;5345289;26;20015;-63
2024/04/18 08:47:25;;;;;;;10.48;5.60;;;;;;;;;;5347428;26;20037;-64
2024/04/18 08:49:50;;;;;;;7.57;4.85;;;;;;;;;;5361422;26;20009;-65
2024/04/18 08:52:17;;;;;;;8.68;5.00;;;;;;;;;;5360677;26;20001;-66
2024/04/18 08:54:43;;;;;;;8.00;4.82;;;;;;;;;;5347737;26;20094;-67
2024/04/18 08:57:10;;;;;;;7.78;4.50;;;;;;;;;;5383416;26;20010;-62
2024/04/18 08:59:36;;;;;;;4.53;4.07;;;;;;;;;;5383188;26;20324;-64
2024/04/18 09:02:01;;;;;;;5.32;3.92;;;;;;;;;;5380911;26;19996;-64
2024/04/18 09:04:29;;;;;;;9.60;4.20;;;;;;;;;;5381887;26;20091;-65
2024/04/18 09:06:54;;;;;;;7.90;4.05;;;;;;;;;;5379657;26;20016;-66
2024/04/18 09:09:21;;;;;;;7.93;4.03;;;;;;;;;;5382906;26;20008;-69
2024/04/18 09:11:47;;;;;;;7.13;3.53;;;;;;;;;;5382287;26;20000;-68
2024/04/18 09:14:12;;;;;;;8.27;3.85;;;;;;;;;;5381226;26;20011;-68
2024/04/18 09:16:38;;;;;;;7.40;3.95;;;;;;;;;;5367764;26;20013;-70
2024/04/18 09:19:04;;;;;;;8.57;4.10;;;;;;;;;;5347544;26;20068;-68
2024/04/18 09:21:30;;;;;;;7.82;4.25;;;;;;;;;;5346368;26;20304;-72
2024/04/18 09:23:57;;;;;;;7.20;3.95;;;;;;;;;;5380310;26;19996;-68
2024/04/18 09:26:25;;;;;;;7.95;4.03;;;;;;;;;;5383051;26;20000;-67
2024/04/18 09:28:51;;;;;;;7.22;4.40;;;;;;;;;;5382029;26;20037;-66
2024/04/18 09:31:19;;;;;;;5.93;3.97;;;;;;;;;;5374940;26;20075;-69
2024/04/18 09:33:45;;;;;;;15.27;5.35;;;;;;;;;;5347837;26;20372;-67
2024/04/18 09:36:13;;;;;;;8.10;4.60;;;;;;;;;;5348299;26;20004;-68
2024/04/18 09:38:41;;;;;;;7.50;4.70;;;;;;;;;;5375524;26;20015;-62
2024/04/18 09:41:09;;;;;;;8.82;5.30;;;;;;;;;;5379419;26;20000;-63
2024/04/18 09:43:56;;;;;;;6.25;4.88;;;;;;;;;;5382381;26;19996;-62
2024/04/18 09:46:23;;;;;;;7.70;5.28;;;;;;;;;;5381742;26;20009;-62
2024/04/18 09:48:49;;;;;;;8.57;4.97;;;;;;;;;;5381083;26;20019;-72
2024/04/18 09:51:16;;;;;;;10.05;5.68;;;;;;;;;;5350704;26;20016;-66
2024/04/18 09:53:43;;;;;;;10.18;5.90;;;;;;;;;;5355316;26;20005;-68
2024/04/18 09:56:08;;;;;;;10.48;5.40;;;;;;;;;;5346986;26;20028;-68
2024/04/18 09:58:35;;;;;;;8.88;5.45;;;;;;;;;;5349253;26;20001;-68
2024/04/18 10:01:01;;;;;;;13.88;6.15;;;;;;;;;;5316200;26;20005;-68
2024/04/18 10:03:27;;;;;;;12.00;6.40;;;;;;;;;;5345477;26;20067;-67
2024/04/18 10:05:54;;;;;;;9.50;6.60;;;;;;;;;;5346921;26;20148;-67
2024/04/18 10:08:21;;;;;;;9.65;5.88;;;;;;;;;;5367914;26;20077;-66
2024/04/18 10:10:47;;;;;;;7.53;6.00;;;;;;;;;;5350837;26;20004;-68
2024/04/18 10:13:12;;;;;;;7.40;5.15;;;;;;;;;;5376736;26;20020;-65
2024/04/18 10:15:37;;;;;;;7.93;4.78;;;;;;;;;;5359925;26;20023;-65
2024/04/18 10:18:14;;;;;;;6.25;4.00;;;;;;;;;;5379960;26;20404;-64
2024/04/18 10:20:41;;;;;;;5.97;3.70;;;;;;;;;;5381224;26;20298;-63
2024/04/18 10:23:10;;;;;;;5.15;2.70;;;;;;;;;;5373572;26;19996;-65
2024/04/18 10:25:45;;;;;;;5.38;3.10;;;;;;;;;;5381518;26;20029;-64
2024/04/18 10:28:20;;;;;;;5.35;3.88;;;;;;;;;;5378344;26;20007;-64
2024/04/18 10:30:47;;;;;;;7.53;4.53;;;;;;;;;;5380257;26;20008;-64
2024/04/18 10:33:12;;;;;;;5.28;3.92;;;;;;;;;;5381338;26;20011;-65
2024/04/18 10:35:37;;;;;;;6.60;3.83;;;;;;;;;;5379649;26;20012;-65
2024/04/18 10:38:04;;;;;;;5.85;4.22;;;;;;;;;;5379894;26;20004;-63
2024/04/18 10:40:31;;;;;;;5.72;3.88;;;;;;;;;;5380901;26;20004;-64
2024/04/18 10:43:13;;;;;;;6.18;3.72;;;;;;;;;;5374016;26;20011;-66
2024/04/18 10:45:39;;;;;;;5.72;4.03;;;;;;;;;;5346508;26;20020;-64
2024/04/18 10:48:05;;;;;;;10.15;4.30;;;;;;;;;;5348077;26;20147;-68
2024/04/18 10:50:31;;;;;;;6.22;3.70;;;;;;;;;;5343492;26;20540;-65
2024/04/18 10:53:02;;;;;;;6.60;3.72;;;;;;;;;;5356893;26;20019;-67
2024/04/18 10:55:27;;;;;;;7.20;3.53;;;;;;;;;;5381611;26;20015;-66
2024/04/18 10:57:52;;;;;;;6.70;3.25;;;;;;;;;;5379289;26;20004;-66
2024/04/18 11:00:18;;;;;;;4.65;2.83;;;;;;;;;;5359643;26;20024;-65
2024/04/18 11:02:43;;;;;;;4.45;3.03;;;;;;;;;;5359779;26;20281;-66
2024/04/18 11:05:09;;;;;;;3.78;2.25;;;;;;;;;;5346450;26;20067;-67
2024/04/18 11:07:34;;;;;;;4.72;2.97;;;;;;;;;;5347927;26;20001;-66
2024/04/18 11:10:00;;;;;;;3.22;2.80;;;;;;;;;;5375122;26;20415;-66
2024/04/18 11:12:25;;;;;;;4.28;2.70;;;;;;;;;;5368975;26;20079;-68
2024/04/18 11:14:52;;;;;;;5.45;3.13;;;;;;;;;;5378993;26;20028;-69
2024/04/18 11:17:17;;;;;;;5.65;2.92;;;;;;;;;;5380706;26;20431;-68
2024/04/18 11:19:43;;;;;;;4.00;2.90;;;;;;;;;;5381386;26;20139;-68
2024/04/18 11:22:08;;;;;;;3.92;2.55;;;;;;;;;;5380978;26;20022;-67
2024/04/18 11:24:34;;;;;;;7.10;2.78;;;;;;;;;;5380657;26;20036;-69
2024/04/18 11:27:04;;;;;;;5.80;3.33;;;;;;;;;;5349386;26;20005;-67
2024/04/18 11:29:31;;;;;;;4.82;2.85;;;;;;;;;;5346427;26;20295;-69
2024/04/18 11:32:06;;;;;;;5.28;2.97;;;;;;;;;;5346665;26;20300;-72
2024/04/18 11:34:31;;;;;;;;;;;;;;;;;;5358894;26;20016;-68
2024/04/18 11:36:57;;;;;;;;;;;;;;;;;;5371814;26;20317;-70
2024/04/18 11:39:22;;;;;;;6.45;3.30;;;;;;;;;;5373345;26;19933;-68
2024/04/18 11:41:47;;;;;;;6.43;3.00;;;;;;;;;;5381119;26;20004;-68
2024/04/18 11:44:13;;;;;;;6.43;3.15;;;;;;;;;;5381430;26;20000;-67
2024/04/18 11:46:39;;;;;;;4.63;3.33;;;;;;;;;;5377326;26;20112;-66
2024/04/18 11:49:04;;;;;;;3.42;2.70;;;;;;;;;;5379476;26;20433;-64
2024/04/18 11:51:30;;;;;;;7.72;3.22;;;;;;;;;;5380907;26;20306;-66
2024/04/18 11:53:55;;;;;;;3.90;3.30;;;;;;;;;;5380136;26;20075;-64
2024/04/18 11:56:20;;;;;;;4.20;3.20;;;;;;;;;;5379542;26;20004;-67
2024/04/18 11:58:46;;;;;;;7.75;3.80;;;;;;;;;;5362601;26;20045;-65
2024/04/18 12:01:13;;;;;;;5.60;3.63;;;;;;;;;;5345761;26;20005;-64
2024/04/18 12:03:40;;;;;;;5.15;3.30;;;;;;;;;;5344483;26;20313;-63
2024/04/18 12:06:05;;;;;;;7.20;3.13;;;;;;;;;;5364159;26;20004;-68
2024/04/18 12:08:31;;;;;;;5.13;3.42;;;;;;;;;;5360727;26;20008;-66
2024/04/18 12:10:56;;;;;;;5.55;2.85;;;;;;;;;;5371943;26;20012;-67
2024/04/18 12:13:21;;;;;;;5.88;2.88;;;;;;;;;;5378464;26;20004;-66
2024/04/18 12:15:47;;;;;;;3.97;2.83;;;;;;;;;;5380371;26;20000;-66
2024/04/18 12:18:12;;;;;;;4.75;3.25;;;;;;;;;;5379619;26;20032;-67
2024/04/18 12:20:40;;;;;;;6.63;2.92;;;;;;;;;;5380269;26;20620;-67
2024/04/18 12:23:05;;;;;;;4.97;2.83;;;;;;;;;;5376077;26;20023;-65
2024/04/18 12:25:30;;;;;;;9.30;3.38;;;;;;;;;;5377809;26;20004;-66
2024/04/18 12:27:56;;;;;;;5.07;3.30;;;;;;;;;;5378849;26;20008;-65
2024/04/18 12:30:21;;;;;;;7.18;3.38;;;;;;;;;;5359656;26;20016;-69
2024/04/18 12:32:46;;;;;;;6.45;3.13;;;;;;;;;;5344766;26;20400;-67
2024/04/18 12:35:12;;;;;;;5.53;4.10;;;;;;;;;;5343270;26;20012;-68
2024/04/18 12:37:37;;;;;;;5.22;3.65;;;;;;;;;;5345413;26;19996;-68
2024/04/18 12:40:05;;;;;;;8.93;4.28;;;;;;;;;;5346039;26;20012;-66
2024/04/18 12:42:30;;;;;;;7.00;4.18;;;;;;;;;;5358062;26;20004;-66
2024/04/18 12:44:56;;;;;;;9.35;4.10;;;;;;;;;;5380285;26;20288;-66
2024/04/18 12:47:21;;;;;;;4.20;3.80;;;;;;;;;;5380540;26;20000;-66
2024/04/18 12:49:47;;;;;;;5.25;3.47;;;;;;;;;;5381261;26;20004;-66
2024/04/18 12:52:13;;;;;;;4.97;3.65;;;;;;;;;;5379292;26;20012;-68
2024/04/18 12:54:38;;;;;;;7.35;3.65;;;;;;;;;;5377407;26;20008;-66
2024/04/18 12:57:04;;;;;;;3.95;3.35;;;;;;;;;;5380411;26;20007;-66
2024/04/18 12:59:29;;;;;;;5.40;3.58;;;;;;;;;;5380112;26;20008;-67
2024/04/18 13:01:55;;;;;;;5.07;3.60;;;;;;;;;;5379751;26;20391;-67
2024/04/18 13:04:20;;;;;;;6.45;3.05;;;;;;;;;;5379511;26;20000;-66
2024/04/18 13:06:46;;;;;;;5.88;3.60;;;;;;;;;;5380654;26;20069;-68
2024/04/18 13:09:11;;;;;;;4.18;3.15;;;;;;;;;;5379159;26;20008;-68
2024/04/18 13:11:37;;;;;;;5.03;3.08;;;;;;;;;;5357933;26;20379;-66
2024/04/18 13:14:04;;;;;;;4.07;2.85;;;;;;;;;;5343172;26;20011;-68
2024/04/18 13:16:33;;;;;;;3.53;2.40;;;;;;;;;;5345511;26;19997;-66
2024/04/18 13:18:58;;;;;;;3.72;2.17;;;;;;;;;;5370744;26;20000;-66
2024/04/18 13:21:23;;;;;;;3.63;2.60;;;;;;;;;;5379334;26;20011;-67
2024/04/18 13:23:49;;;;;;;4.85;2.58;;;;;;;;;;5379865;26;19996;-66
2024/04/18 13:26:14;;;;;;;4.63;2.80;;;;;;;;;;5382881;26;20323;-67
2024/04/18 13:28:40;;;;;;;2.97;2.67;;;;;;;;;;5381635;26;20007;-66
2024/04/18 13:31:10;;;;;;;5.75;2.50;;;;;;;;;;5382384;26;20000;-67
2024/04/18 13:33:36;;;;;;;5.78;3.00;;;;;;;;;;5379662;26;20403;-66
2024/04/18 13:36:01;;;;;;;4.72;2.63;;;;;;;;;;5383428;26;20078;-66
2024/04/18 13:38:27;;;;;;;3.28;2.00;;;;;;;;;;5383237;26;20004;-66
2024/04/18 13:40:52;;;;;;;2.75;2.03;;;;;;;;;;5382798;26;20011;-66
2024/04/18 13:43:18;;;;;;;5.32;2.30;;;;;;;;;;5347530;26;20009;-66
2024/04/18 13:45:43;;;;;;;3.65;2.42;;;;;;;;;;5348839;26;20169;-66
2024/04/18 13:48:08;;;;;;;2.75;2.40;;;;;;;;;;5350682;26;20123;-65
2024/04/18 13:50:34;;;;;;;3.72;2.78;;;;;;;;;;5346755;26;20009;-67
2024/04/18 13:52:59;;;;;;;2.65;2.05;;;;;;;;;;5347344;26;20071;-67
2024/04/18 13:55:25;;;;;;;4.60;2.85;;;;;;;;;;5348765;26;20012;-66
2024/04/18 13:57:51;;;;;;;3.10;2.33;;;;;;;;;;5348381;26;20013;-67
2024/04/18 14:00:16;;;;;;;5.38;2.30;;;;;;;;;;5347460;26;20013;-67
2024/04/18 14:02:42;;;;;;;4.35;2.30;;;;;;;;;;5349428;26;20451;-66
2024/04/18 14:05:07;;;;;;;2.10;1.90;;;;;;;;;;5347279;26;19997;-68
2024/04/18 14:07:33;;;;;;;6.85;2.38;;;;;;;;;;5382652;26;20004;-67
2024/04/18 14:09:58;;;;;;;3.33;2.45;;;;;;;;;;5380754;26;20012;-67
2024/04/18 14:12:23;;;;;;;2.83;2.28;;;;;;;;;;5382527;26;19996;-64
2024/04/18 14:14:55;;;;;;;5.35;2.75;;;;;;;;;;5383071;26;20004;-65
2024/04/18 14:20:05;;;;;;;3.22;2.47;;;;;;;;;;5379308;26;20015;-66
2024/04/18 14:22:31;;;;;;;3.85;2.30;;;;;;;;;;5353662;26;20070;-66
2024/04/18 14:24:57;;;;;;;4.65;2.75;;;;;;;;;;5346989;26;20044;-65
2024/04/18 14:27:23;;;;;;;3.20;2.40;;;;;;;;;;5347708;26;20117;-65
2024/04/18 14:29:48;;;;;;;5.60;2.25;;;;;;;;;;5349860;26;20019;-68
2024/04/18 14:32:14;;;;;;;2.10;1.80;;;;;;;;;;5347004;26;20005;-67